Colorado Springs, CO (80921)

12:06 AM MDT on September 01, 2016 (GMT -0600)
KCOCOLOR198 | | Change Station

Elev 6925 ft 39.03 °N, 104.81 °W | Updated 2 minutes ago

Overcast
Overcast
57.6 °F
Feels Like 57.6 °F
N
1.0
Wind Variable Wind from SSE
Gusts 5.0 mph

Today
High -- | Low -- °F
--% Chance of Precip.
Yesterday
High -- | Low -- °F
Precip. -- in
Pressure 30.14 in
Visibility 10.0 miles
Clouds Overcast 1500 ft
Dew Point 54 °F
Humidity 87%
Rainfall 0.00 in
Snow Depth Not available.
6:28 AM 7:28 PM
Waning Crescent, 0% visible
METAR KAFF 010558Z AUTO 16006KT 10SM OVC015 15/13 A3037 RMK AO2 SLP206 T01530126 10226 20151 50001
Pressure 30.14 in
Visibility 10.0 miles
Clouds Overcast 1500 ft
Dew Point 54 °F
Humidity 87%
Rainfall 0.00 in
Snow Depth Not available.
6:28 AM 7:28 PM
Waning Crescent, 0% visible
METAR KAFF 010558Z AUTO 16006KT 10SM OVC015 15/13 A3037 RMK AO2 SLP206 T01530126 10226 20151 50001

10-Day Weather Forecast

Almanac

Astronomy

Sep. 01, 2016 Rise Set
Actual Time
Civil Twilight
Nautical Twilight
Astronomical Twilight
Moon
Length of Visible Light
Length of Day
Tomorrow will be .
, % of the Moon is Illuminated

Today's Extremes

State Highs State Lows

Community

WunderPhotos

Upload Photos

1,936,313 photos uploaded!

WunderBlog® & News

Nearby

Air Quality

  Air Quality AQ Index Pollutant
Not available.

Snow Depth

Station Depth Elevation

Earthquake Activity

City Distance Mag. Time & Date
Minimum magnitude displayed is 2.5.

Coastal Water Temperatures

Place Temperature

Stations

Nearby Weather Stations

Station Location Temp. Windchill Dew Point Humidity Wind Precip. Elev Updated Type
                   

Watches & Warnings

There are currently no watches in effect.